Challenge des Allures Libres de Gaume

Le Jogging Du Tennis De Table - Virton (5.50 km)

dimanche 06 octobre 2019

Le classement original se trouve sur : http://www.acdampicourt.be
CHALLENGE DES ALLURES LIBRES DE GAUME
LE JOGGING DU TENNIS DE TABLE - VIRTON
DISTANCE : 5.50 km
dimanche 06 octobre 2019
 
Place dos NOM Cat. Pl/Cat. temps temps/km Vitesse
01:00:00              
1 2115 SCHRAUBEN Tarik S 1 00:19:44 03:35 16.72
2 111 TESFANKIEL Kidane S 2 00:20:00 03:38 16.50
3 2246 STEFFEN John S 3 00:20:05 03:39 16.43
4 288 BALON Arnaud S 4 00:20:14 03:41 16.31
5 1058 BOUSCHET Tristan S 5 00:20:50 03:47 15.84
6 1950 HENRY Nicolas S 6 00:21:00 03:49 15.71
7 177 HIRTZMANN Johan JH 1 00:21:07 03:50 15.63
8 2016 LIEFFRIG Nicolas S 7 00:21:14 03:52 15.54
9 911 JACQUEMIN Rémy S 8 00:21:17 03:52 15.51
10 1117 CHEVALIER Sébastien V1 1 00:21:22 03:53 15.44
11 551 MENACER Armand S 9 00:21:28 03:54 15.37
12 340 WEKHUIZEN Michaël V1 2 00:22:22 04:04 14.75
13 325 HUMBERT Philippe V2 1 00:22:40 04:07 14.56
14 393 ABU JAHRUR Wahab V1 3 00:22:58 04:11 14.37
15 507 PAQUET David V1 4 00:23:02 04:11 14.33
16 287 BALON Ludovic V1 5 00:23:04 04:12 14.31
17 2544 RAUSCH Michel V2 2 00:23:22 04:15 14.12
18 1210 DELAFONTAINE Noah JH 2 00:23:28 04:16 14.06
19 356 DHAEZE Céline A1 1 00:23:29 04:16 14.05
20 297 BERKÈS Céline A1 2 00:23:35 04:17 13.99
21 2489 PONCELET Bertrand S 10 00:23:40 04:18 13.94
22 1062 DARCIS Raphaël V1 6 00:23:46 04:19 13.88
23 522 THIEBAUX Thomas S 11 00:23:55 04:21 13.80
24 207 PONCELET Marvin JH 3 00:24:10 04:24 13.66
25 2492 LAMBERT Valentin JH 4 00:24:13 04:24 13.63
26 159 DE RUETTE Yoann S 12 00:24:15 04:25 13.61
27 64 BARTHAUX Benoît S 13 00:24:17 04:25 13.59
28 647 PLAINCHAMP Gwénaëlle A1 3 00:24:24 04:26 13.52
29 738 OLIVIER Christian V3 1 00:24:32 04:28 13.45
30 1133 BARNICH Laurence A2 1 00:24:35 04:28 13.42
31 984 DOMINIQUE Didier V2 3 00:24:37 04:29 13.41
32 1149 REUTER Jonathan S 14 00:24:40 04:29 13.38
33 2168 EMONDS Nathan JH 5 00:24:43 04:30 13.35
34 305 BARTHAUX Sébastien S 15 00:24:44 04:30 13.34
35 1959 COLLET Sébastien S 16 00:24:46 04:30 13.32
36 2076 BERNAGOU Esteban JH 6 00:24:47 04:30 13.32
37 296 PONCELET Cécile A2 2 00:24:51 04:31 13.28
38 456 DEWEZ Robin JH 7 00:24:56 04:32 13.24
39 7 FRIOB Tom JH 8 00:24:58 04:32 13.22
40 2298 DEBOUT Hervé S 17 00:25:00 04:33 13.20
41 175 ALPHA Ousmane S 18 00:25:05 04:34 13.16
42 1801 ALI Hussein JH 9 00:25:19 04:36 13.03
43 362 GOFFINET Aurélien JH 10 00:25:24 04:37 12.99
44 2124 KESETE Samuel S 19 00:25:28 04:38 12.96
45 728 MIGNOSI Jean-Jacques V3 2 00:25:31 04:38 12.93
46 94 GILSON Romain S 20 00:25:36 04:39 12.89
47 406 BURHIN Michaël S 21 00:25:37 04:39 12.88
48 2349 HENNENKEMDER Johann JH 11 00:25:39 04:40 12.87
49 1317 PIERRARD Jonathan S 22 00:25:41 04:40 12.85
50 1114 LEFORT Pierre V1 7 00:25:43 04:41 12.83
51 70 JACQUET Claude V2 4 00:25:49 04:42 12.78
52 1339 WÜRTH Lukas V2 5 00:25:51 04:42 12.77
53 65 IN Lia JF 1 00:25:53 04:42 12.75
54 617 RATY Amélie JF 2 00:25:55 04:43 12.73
55 285 RICAIL Catherine A2 3 00:25:57 04:43 12.72
56 313 OLIVIER Séverine F 1 00:26:00 04:44 12.69
57 1924 CONNEROTTE Alexy F 2 00:26:04 04:44 12.66
58 517 HUMBERT Emelyne F 3 00:26:21 04:47 12.52
59 92 WELVAERT Jules V3 3 00:26:23 04:48 12.51
60 2548 HANUS François S 23 00:27:09 04:56 12.15
61 887 VINCKE Jean-Claude V2 6 00:27:18 04:58 12.09
62 597 TOUILLAUX Dominique V2 7 00:27:28 05:00 12.01
63 1029 ROLAND Roméo S 24 00:27:37 05:01 11.95
64 2326 ESEYAS Tadse-Efrem S 25 00:27:40 05:02 11.93
65 1372 THIRION Maxime JH 12 00:27:43 05:02 11.91
66 849 MONHONVAL Romane JF 3 00:28:03 05:06 11.76
67 1390 REMY Joachim JH 13 00:28:05 05:06 11.75
68 910 DELHAYE Violaine JF 4 00:28:20 05:09 11.65
69 2131 RAVET Antoine S 26 00:28:22 05:09 11.63
70 2531 PEIFFER Bérenger S 27 00:28:26 05:10 11.61
71 2545 RACINE Tom JH 14 00:28:32 05:11 11.57
72 2350 ALBERT Vincent S 28 00:28:34 05:12 11.55
73 721 LESENFANTS Francis V3 4 00:28:38 05:12 11.53
74 205 THIRY Jean-Marc V2 8 00:28:39 05:13 11.52
75 727 MARINONI Daniel V3 5 00:28:53 05:15 11.43
76 2477 MAISSIN Noé JH 15 00:29:01 05:17 11.37
77 2530 BLONDELET Nicolas S 29 00:29:03 05:17 11.36
78 1182 WAGNER Céline F 4 00:29:11 05:18 11.31
79 1181 WAGNER Eric V1 8 00:29:13 05:19 11.29
80 426 PONLOT Jean-Jacques V2 9 00:29:22 05:20 11.24
81 564 GALLAIRE Lola JF 5 00:29:25 05:21 11.22
82 2285 MOREAU Thierry V3 6 00:29:30 05:22 11.19
83 77 ZIMMER Etienne V1 9 00:29:33 05:22 11.17
84 434 TARNUS Noémie F 5 00:29:36 05:23 11.15
85 25 CLEMENT Daniel V2 10 00:29:42 05:24 11.11
86 1179 NAVET Fabrice V1 10 00:29:47 05:25 11.08
87 1504 DASNOY Priscillia F 6 00:29:49 05:25 11.07
88 35 KIM Jacques V4 1 00:29:52 05:26 11.05
89 501 MAISSIN Achille V4 2 00:29:55 05:26 11.03
90 47 HUMBERT Léa JF 6 00:29:58 05:27 11.01
91 254 MAGOTTEAUX Clément S 30 00:30:00 05:27 11.00
92 2462 DEBOUT Matthieu S 31 00:30:02 05:28 10.99
93 407 BOULANGER Anne A1 4 00:30:05 05:28 10.97
94 680 COLLOT Guy V2 11 00:30:11 05:29 10.93
95 523 RENAULD Lyse F 7 00:30:13 05:30 10.92
96 316 COLLIGNON Joseph V4 3 00:30:24 05:32 10.86
97 596 HALLET Nadine A2 4 00:30:30 05:33 10.82
98 2407 MAISSIN Jean-Pierre V2 12 00:30:34 05:33 10.80
99 127 DURAND Annette A3 1 00:30:38 05:34 10.77
100 1468 NONDONFAZ Maxime S 32 00:30:40 05:35 10.76
101 885 DEFOIN Christian V2 13 00:30:48 05:36 10.71
102 1218 TINANT Maxime S 33 00:30:51 05:37 10.70
103 259 DARGENTON Quentin S 34 00:31:02 05:39 10.63
104 2399 AMRANE Basile JH 16 00:31:08 05:40 10.60
105 349 JOANNES Claire A4 1 00:31:10 05:40 10.59
106 141 MARTIN Marie-Louise A4 2 00:31:11 05:40 10.58
107 140 PAQUOT Sandrine A1 5 00:31:16 05:41 10.55
108 821 RAFEA Aymen Safa Aldin S 35 00:31:17 05:41 10.55
109 612 TINANT Philippe V3 7 00:31:28 05:43 10.49
110 1356 DUBOIS Thierry S 36 00:31:38 05:45 10.43
111 792 HALBARDIER Michaël S 37 00:31:45 05:46 10.39
112 1036 THIRION Christophe V1 11 00:31:56 05:48 10.33
113 19 RAUCY Alain V3 8 00:31:58 05:49 10.32
114 899 ETIENNE Frank V2 14 00:32:10 05:51 10.26
115 1711 MAZUIS Alexandre S 38 00:32:14 05:52 10.24
116 1186 MILLARD Pierre S 39 00:32:18 05:52 10.22
117 676 SCHOCKMEL Audrey F 8 00:32:22 05:53 10.20
118 642 LATTEUR Bénédicte A2 5 00:32:24 05:53 10.19
119 2195 KLEIN Vicky F 9 00:32:28 05:54 10.16
120 459 BERKES Isabelle A3 2 00:32:29 05:54 10.16
121 615 HANUS Noéline F 10 00:32:30 05:55 10.15
122 2443 DROPSY Yannick V2 15 00:32:32 05:55 10.14
123 253 DOMENECH Marivi A2 6 00:32:39 05:56 10.11
124 292 QUARTICELLI Ilaria A1 6 00:32:41 05:57 10.10
125 571 GOUVERNEUR Pierre V2 16 00:32:44 05:57 10.08
126 223 LESPAGNARD Pascale A3 3 00:32:46 05:57 10.07
127 1164 SCHNEIDER Philippe V2 17 00:32:58 06:00 10.01
128 563 BOSQUET Henri V3 9 00:33:00 06:00 10.00
129 2518 PATIO Thomas S 40 00:33:01 06:00 9.99
130 2519 AZEEZ Frishta JF 7 00:33:03 06:01 9.98
131 2491 LAMBERT Lucie JF 8 00:33:11 06:02 9.94
132 59 BAAR Pierre V3 10 00:33:19 06:03 9.90
133 713 MOREIRA Tiago S 41 00:33:25 06:05 9.88
134 16 HOLLANGE Christiane A2 7 00:33:28 06:05 9.86
135 41 BREVERY Roby V3 11 00:33:31 06:06 9.85
136 2194 GOURDANGE Lucie F 11 00:33:34 06:06 9.83
137 1674 DEFOIN Florie F 12 00:33:36 06:07 9.82
138 152 DESSOY Dominique V2 18 00:33:38 06:07 9.81
139 336 AUTHELET Marie F 13 00:33:52 06:09 9.74
140 553 LATRAN Freddy V3 12 00:34:05 06:12 9.68
141 1964 GARDIEN Martine A3 4 00:34:20 06:15 9.61
142 355 MOOCK Charlotte F 14 00:34:29 06:16 9.57
143 960 TOUILLAUX Sasha JF 9 00:34:35 06:17 9.54
144 1146 JACQUES Sabine A2 8 00:34:37 06:18 9.53
145 1795 THOMAS Julien S 42 00:34:42 06:19 9.51
146 200 LEQUEUX Pascale A2 9 00:34:59 06:22 9.43
147 2414 EMONDS Camille JF 10 00:35:05 06:23 9.41
148 2181 GRAVET Roland V2 19 00:35:25 06:26 9.32
149 2116 MASY Arnaud S 43 00:35:26 06:27 9.31
150 265 BARTHAUX Norah JF 11 00:35:48 06:31 9.22
151 2331 VETEAU Olivier V1 12 00:35:52 06:31 9.20
152 1426 MIHRAMANE Kenza JF 12 00:36:03 06:33 9.15
153 705 HANUS Mélissa F 15 00:36:17 06:36 9.10
154 652 GREIN Martine A3 5 00:36:21 06:37 9.08
155 243 BILOCQ Chantal A4 3 00:36:57 06:43 8.93
156 6 WERER Daniel V2 20 00:37:01 06:44 8.91
157 939 FRANÇOIS Pascal V3 13 00:37:08 06:45 8.89
158 619 OTH Alexia F 16 00:37:12 06:46 8.87
159 770 PASTEELS Anne A1 7 00:37:23 06:48 8.83
160 2528 LAMBERT Lilou JF 13 00:37:30 06:49 8.80
161 816 MISHKOR Alias Rasho Mishkor S 44 00:37:35 06:50 8.78
162 2543 RIGAUX Sabine A2 10 00:37:52 06:53 8.71
163 234 BERGMANN Stany V1 13 00:37:54 06:53 8.71
164 104 VEREENOOGHE Saskia A1 8 00:37:59 06:54 8.69
165 2542 KIM Christopher S 45 00:38:01 06:55 8.68
166 811 D'OUVRIER Anne A2 11 00:38:08 06:56 8.65
167 2510 VANDELOISE François S 46 00:38:10 06:56 8.65
168 2517 AZEEZ Mohammed JH 17 00:38:14 06:57 8.63
169 248 BOUVY Mallory F 17 00:38:30 07:00 8.57
170 146 RÉSIBOIS Alicia F 18 00:38:35 07:01 8.55
171 624 LEONARD Emilie A1 9 00:38:41 07:02 8.53
172 2072 KOROLEVA Eléna A2 12 00:38:53 07:04 8.49
173 729 SARNARI Joseph V3 14 00:39:05 07:06 8.44
174 2441 BODEUX Clara JF 14 00:39:13 07:08 8.41
175 1675 VINCK Fleur A1 10 00:39:25 07:10 8.37
176 1273 REMY Guy V1 14 00:39:30 07:11 8.35
177 2452 CHERIFI Lila A1 11 00:39:37 07:12 8.33
178 82 REZETTE Michel V5 1 00:40:28 07:21 8.15
179 118 GUILLAUME Martine A2 13 00:40:35 07:23 8.13
180 250 KEMP Isabelle A2 14 00:41:37 07:34 7.93
181 158 EISCHEN Jeannot V4 4 00:45:47 08:19 7.21
182 2547 HERMAN Christine A3 6 00:46:25 08:26 7.11
183 2520 MOHAMMED Lorine JF 15 00:46:32 08:28 7.09
184 2521 AZEEZ Farmesk JF 16 00:47:17 08:36 6.98
185 820 PAUQUET Nicole A3 7 00:47:50 08:42 6.90
186 506 TOUAZI Brigitte A2 15 00:52:00 09:27 6.35
187 555 PETIT Béatrice A4 4 00:55:00 10:00 6.00
188 271 BILOCQ Nicole A5 1 00:55:00 10:00 6.00
189 2312 DASNOY Vanessa F 19 00:56:00 10:11 5.89
190 384 FISCHBACH Marie-Paule A3 8 00:57:00 10:22 5.79
191 945 WERNER Francine A4 5 00:57:20 10:25 5.76
192 26 VINCENT Romane JF 17 00:57:20 10:25 5.76
193 2375 DEVAUX Christelle A2 16 01:00:00 10:55 5.50
194 217 PEIFFER Claudine A4 6 01:00:00 10:55 5.50
195 218 MIGEOTTE Raymond V4 5 01:00:00 10:55 5.50
196 2374 MULLER Valérie A2 17 01:00:00 10:55 5.50
197 388 WAGNER Huguette A5 2 01:01:00 11:05 5.41
198 36 KIM Joëlle A4 7 01:01:00 11:05 5.41
199 1274 JACQUARD Vinciane A1 12 01:02:00 11:16 5.32
200 1386 JACQUET Kieran JH 18 01:02:00 11:16 5.32
201 303 WILLEME Guy V4 6 01:04:00 11:38 5.16
202 2432 SIZAIRE Jacques V3 15 01:04:00 11:38 5.16
203 736 LABENNE Nathalie A2 18 01:08:00 12:22 4.85
204 123 DEJANA Mireille A2 19 01:08:00 12:22 4.85
205 408 GAUSSIN Jacques V4 7 01:15:00 13:38 4.40
206 330 BILOCQ Rose-Marie A4 8 01:18:00 14:11 4.23
207 500 GILLET Madeleine A4 9 01:18:00 14:11 4.23
208 1233 RAUSCH André V4 8 01:18:00 14:11 4.23
209 1234 DECKER Irène A5 3 01:18:00 14:11 4.23
210 172 MULLER Jean-Marie V5 2 01:20:00 14:33 4.13
211 171 DERUETTE Thérèse A5 4 01:20:00 14:33 4.13
212 50 PIREAUX Marcel V5 3 01:20:00 14:33 4.13
213 173 PLAINCHAMP Robert V4 9 01:20:00 14:33 4.13
214 13 NAISSE Danielle A5 5 01:20:00 14:33 4.13
215 14 GOURDANGE Michel V5 4 01:20:00 14:33 4.13
216 307 NUYTTEN Anne-Marie A5 6 01:29:00 16:11 3.71
217 631 ISTACE Jean-Claude V4 10 01:29:00 16:11 3.71